sensor_id;sensor_type;location;lat;lon;timestamp;P1;durP1;ratioP1;P2;durP2;ratioP2
15071;SDS011;7635;56.696;13.002;2023-06-10T00:00:12;1.00;;;1.00;;
15071;SDS011;7635;56.696;13.002;2023-06-10T00:02:40;0.73;;;0.73;;
15071;SDS011;7635;56.696;13.002;2023-06-10T00:05:07;0.82;;;0.82;;
15071;SDS011;7635;56.696;13.002;2023-06-10T00:07:34;1.23;;;1.20;;
15071;SDS011;7635;56.696;13.002;2023-06-10T00:10:03;0.80;;;0.80;;
15071;SDS011;7635;56.696;13.002;2023-06-10T00:12:31;2.10;;;1.40;;
15071;SDS011;7635;56.696;13.002;2023-06-10T00:15:03;1.33;;;1.23;;
15071;SDS011;7635;56.696;13.002;2023-06-10T00:17:30;0.82;;;0.80;;
15071;SDS011;7635;56.696;13.002;2023-06-10T00:19:57;0.93;;;0.93;;
15071;SDS011;7635;56.696;13.002;2023-06-10T00:22:24;0.77;;;0.77;;
15071;SDS011;7635;56.696;13.002;2023-06-10T00:24:54;2.67;;;1.10;;
15071;SDS011;7635;56.696;13.002;2023-06-10T00:27:21;0.77;;;0.77;;
15071;SDS011;7635;56.696;13.002;2023-06-10T00:29:48;0.93;;;0.93;;
15071;SDS011;7635;56.696;13.002;2023-06-10T00:32:16;0.95;;;0.93;;
15071;SDS011;7635;56.696;13.002;2023-06-10T00:34:42;0.70;;;0.70;;
15071;SDS011;7635;56.696;13.002;2023-06-10T00:37:09;0.80;;;0.80;;
15071;SDS011;7635;56.696;13.002;2023-06-10T00:39:36;1.15;;;0.90;;
15071;SDS011;7635;56.696;13.002;2023-06-10T00:42:03;1.30;;;1.20;;
15071;SDS011;7635;56.696;13.002;2023-06-10T00:44:32;0.80;;;0.80;;
15071;SDS011;7635;56.696;13.002;2023-06-10T00:46:58;0.77;;;0.77;;
15071;SDS011;7635;56.696;13.002;2023-06-10T00:49:26;0.73;;;0.73;;
15071;SDS011;7635;56.696;13.002;2023-06-10T00:51:54;0.73;;;0.73;;
15071;SDS011;7635;56.696;13.002;2023-06-10T00:54:20;0.80;;;0.80;;
15071;SDS011;7635;56.696;13.002;2023-06-10T00:56:48;0.77;;;0.77;;
15071;SDS011;7635;56.696;13.002;2023-06-10T00:59:15;0.90;;;0.90;;
15071;SDS011;7635;56.696;13.002;2023-06-10T01:01:42;1.10;;;0.95;;
15071;SDS011;7635;56.696;13.002;2023-06-10T01:04:12;0.70;;;0.70;;
15071;SDS011;7635;56.696;13.002;2023-06-10T01:06:41;0.80;;;0.80;;
15071;SDS011;7635;56.696;13.002;2023-06-10T01:09:18;0.90;;;0.90;;
15071;SDS011;7635;56.696;13.002;2023-06-10T01:11:52;1.05;;;0.68;;
15071;SDS011;7635;56.696;13.002;2023-06-10T01:14:24;0.70;;;0.70;;
15071;SDS011;7635;56.696;13.002;2023-06-10T01:16:51;0.80;;;0.80;;
15071;SDS011;7635;56.696;13.002;2023-06-10T01:19:18;0.85;;;0.73;;
15071;SDS011;7635;56.696;13.002;2023-06-10T01:21:46;0.88;;;0.88;;
15071;SDS011;7635;56.696;13.002;2023-06-10T01:24:13;1.45;;;0.85;;
15071;SDS011;7635;56.696;13.002;2023-06-10T01:26:43;0.93;;;0.93;;
15071;SDS011;7635;56.696;13.002;2023-06-10T01:29:12;0.85;;;0.85;;
15071;SDS011;7635;56.696;13.002;2023-06-10T01:31:45;0.50;;;0.50;;
15071;SDS011;7635;56.696;13.002;2023-06-10T01:34:18;0.70;;;0.70;;
15071;SDS011;7635;56.696;13.002;2023-06-10T01:36:47;0.70;;;0.70;;
15071;SDS011;7635;56.696;13.002;2023-06-10T01:39:15;0.95;;;0.95;;
15071;SDS011;7635;56.696;13.002;2023-06-10T01:41:43;0.80;;;0.80;;
15071;SDS011;7635;56.696;13.002;2023-06-10T01:44:10;0.73;;;0.73;;
15071;SDS011;7635;56.696;13.002;2023-06-10T01:46:37;0.90;;;0.90;;
15071;SDS011;7635;56.696;13.002;2023-06-10T01:49:04;1.05;;;1.00;;
15071;SDS011;7635;56.696;13.002;2023-06-10T01:51:31;1.15;;;0.80;;
15071;SDS011;7635;56.696;13.002;2023-06-10T01:54:00;0.90;;;0.90;;
15071;SDS011;7635;56.696;13.002;2023-06-10T01:56:26;0.85;;;0.85;;
15071;SDS011;7635;56.696;13.002;2023-06-10T01:58:53;0.73;;;0.73;;
15071;SDS011;7635;56.696;13.002;2023-06-10T02:01:24;0.70;;;0.70;;
15071;SDS011;7635;56.696;13.002;2023-06-10T02:03:50;0.50;;;0.50;;
15071;SDS011;7635;56.696;13.002;2023-06-10T02:06:17;1.33;;;1.23;;
15071;SDS011;7635;56.696;13.002;2023-06-10T02:08:44;0.90;;;0.90;;
15071;SDS011;7635;56.696;13.002;2023-06-10T02:11:12;1.05;;;0.90;;
15071;SDS011;7635;56.696;13.002;2023-06-10T02:13:39;0.80;;;0.80;;
15071;SDS011;7635;56.696;13.002;2023-06-10T02:16:05;0.70;;;0.70;;
15071;SDS011;7635;56.696;13.002;2023-06-10T02:18:32;0.75;;;0.75;;
15071;SDS011;7635;56.696;13.002;2023-06-10T02:20:59;1.77;;;0.82;;
15071;SDS011;7635;56.696;13.002;2023-06-10T02:23:26;0.80;;;0.80;;
15071;SDS011;7635;56.696;13.002;2023-06-10T02:25:53;0.77;;;0.77;;
15071;SDS011;7635;56.696;13.002;2023-06-10T02:28:21;0.80;;;0.80;;
15071;SDS011;7635;56.696;13.002;2023-06-10T02:30:48;0.98;;;0.98;;
15071;SDS011;7635;56.696;13.002;2023-06-10T02:33:14;2.15;;;0.90;;
15071;SDS011;7635;56.696;13.002;2023-06-10T02:35:42;0.88;;;0.88;;
15071;SDS011;7635;56.696;13.002;2023-06-10T02:38:09;0.80;;;0.80;;
15071;SDS011;7635;56.696;13.002;2023-06-10T02:40:36;0.50;;;0.50;;
15071;SDS011;7635;56.696;13.002;2023-06-10T02:43:03;0.77;;;0.77;;
15071;SDS011;7635;56.696;13.002;2023-06-10T02:45:31;0.80;;;0.80;;
15071;SDS011;7635;56.696;13.002;2023-06-10T02:47:58;0.60;;;0.60;;
15071;SDS011;7635;56.696;13.002;2023-06-10T02:50:24;0.60;;;0.60;;
15071;SDS011;7635;56.696;13.002;2023-06-10T02:52:51;0.63;;;0.63;;
15071;SDS011;7635;56.696;13.002;2023-06-10T02:55:17;0.90;;;0.90;;
15071;SDS011;7635;56.696;13.002;2023-06-10T02:57:44;0.60;;;0.60;;
15071;SDS011;7635;56.696;13.002;2023-06-10T03:00:11;0.65;;;0.65;;
15071;SDS011;7635;56.696;13.002;2023-06-10T03:02:40;0.60;;;0.60;;
15071;SDS011;7635;56.696;13.002;2023-06-10T03:05:07;0.85;;;0.85;;
15071;SDS011;7635;56.696;13.002;2023-06-10T03:07:35;0.60;;;0.60;;
15071;SDS011;7635;56.696;13.002;2023-06-10T03:10:03;0.80;;;0.80;;
15071;SDS011;7635;56.696;13.002;2023-06-10T03:12:30;0.50;;;0.50;;
15071;SDS011;7635;56.696;13.002;2023-06-10T03:14:57;0.70;;;0.70;;
15071;SDS011;7635;56.696;13.002;2023-06-10T03:17:24;0.60;;;0.60;;
15071;SDS011;7635;56.696;13.002;2023-06-10T03:19:52;0.80;;;0.80;;
15071;SDS011;7635;56.696;13.002;2023-06-10T03:22:18;0.70;;;0.70;;
15071;SDS011;7635;56.696;13.002;2023-06-10T03:24:45;0.70;;;0.70;;
15071;SDS011;7635;56.696;13.002;2023-06-10T03:27:15;0.70;;;0.70;;
15071;SDS011;7635;56.696;13.002;2023-06-10T03:29:42;0.70;;;0.70;;
15071;SDS011;7635;56.696;13.002;2023-06-10T03:32:09;0.80;;;0.80;;
15071;SDS011;7635;56.696;13.002;2023-06-10T03:34:36;1.17;;;1.08;;
15071;SDS011;7635;56.696;13.002;2023-06-10T03:37:05;0.70;;;0.70;;
15071;SDS011;7635;56.696;13.002;2023-06-10T03:39:32;0.88;;;0.88;;
15071;SDS011;7635;56.696;13.002;2023-06-10T03:41:59;0.77;;;0.77;;
15071;SDS011;7635;56.696;13.002;2023-06-10T03:44:25;0.65;;;0.65;;
15071;SDS011;7635;56.696;13.002;2023-06-10T03:46:52;1.13;;;1.08;;
15071;SDS011;7635;56.696;13.002;2023-06-10T03:49:19;0.60;;;0.60;;
15071;SDS011;7635;56.696;13.002;2023-06-10T03:51:46;0.70;;;0.70;;
15071;SDS011;7635;56.696;13.002;2023-06-10T03:54:14;0.90;;;0.90;;
15071;SDS011;7635;56.696;13.002;2023-06-10T03:56:41;0.75;;;0.75;;
15071;SDS011;7635;56.696;13.002;2023-06-10T03:59:08;1.05;;;1.00;;
15071;SDS011;7635;56.696;13.002;2023-06-10T04:01:34;0.77;;;0.77;;
15071;SDS011;7635;56.696;13.002;2023-06-10T04:04:02;1.00;;;0.80;;
15071;SDS011;7635;56.696;13.002;2023-06-10T04:06:29;0.90;;;0.50;;
15071;SDS011;7635;56.696;13.002;2023-06-10T04:08:56;0.80;;;0.80;;
15071;SDS011;7635;56.696;13.002;2023-06-10T04:11:25;1.77;;;0.77;;
15071;SDS011;7635;56.696;13.002;2023-06-10T04:13:51;1.02;;;0.85;;
15071;SDS011;7635;56.696;13.002;2023-06-10T04:16:18;0.55;;;0.55;;
15071;SDS011;7635;56.696;13.002;2023-06-10T04:18:46;0.70;;;0.70;;
15071;SDS011;7635;56.696;13.002;2023-06-10T04:21:12;0.50;;;0.50;;
15071;SDS011;7635;56.696;13.002;2023-06-10T04:23:39;0.70;;;0.70;;
15071;SDS011;7635;56.696;13.002;2023-06-10T04:26:06;0.85;;;0.85;;
15071;SDS011;7635;56.696;13.002;2023-06-10T04:28:35;1.00;;;0.88;;
15071;SDS011;7635;56.696;13.002;2023-06-10T04:31:01;1.20;;;1.10;;
15071;SDS011;7635;56.696;13.002;2023-06-10T04:33:29;0.80;;;0.80;;
15071;SDS011;7635;56.696;13.002;2023-06-10T04:35:55;0.80;;;0.80;;
15071;SDS011;7635;56.696;13.002;2023-06-10T04:38:22;0.80;;;0.80;;
15071;SDS011;7635;56.696;13.002;2023-06-10T04:40:49;2.30;;;0.90;;
15071;SDS011;7635;56.696;13.002;2023-06-10T04:43:16;1.05;;;1.00;;
15071;SDS011;7635;56.696;13.002;2023-06-10T04:45:44;0.75;;;0.75;;
15071;SDS011;7635;56.696;13.002;2023-06-10T04:48:10;0.75;;;0.75;;
15071;SDS011;7635;56.696;13.002;2023-06-10T04:50:37;0.65;;;0.65;;
15071;SDS011;7635;56.696;13.002;2023-06-10T04:53:04;0.73;;;0.73;;
15071;SDS011;7635;56.696;13.002;2023-06-10T04:55:31;0.80;;;0.80;;
15071;SDS011;7635;56.696;13.002;2023-06-10T04:57:59;0.88;;;0.82;;
15071;SDS011;7635;56.696;13.002;2023-06-10T05:00:26;0.70;;;0.70;;
15071;SDS011;7635;56.696;13.002;2023-06-10T05:02:54;1.42;;;1.20;;
15071;SDS011;7635;56.696;13.002;2023-06-10T05:05:21;0.90;;;0.90;;
15071;SDS011;7635;56.696;13.002;2023-06-10T05:07:48;1.42;;;0.80;;
15071;SDS011;7635;56.696;13.002;2023-06-10T05:10:14;1.15;;;0.70;;
15071;SDS011;7635;56.696;13.002;2023-06-10T05:12:41;0.98;;;0.98;;
15071;SDS011;7635;56.696;13.002;2023-06-10T05:15:08;3.17;;;1.00;;
15071;SDS011;7635;56.696;13.002;2023-06-10T05:17:35;0.88;;;0.88;;
15071;SDS011;7635;56.696;13.002;2023-06-10T05:20:04;1.02;;;0.90;;
15071;SDS011;7635;56.696;13.002;2023-06-10T05:22:31;1.25;;;1.15;;
15071;SDS011;7635;56.696;13.002;2023-06-10T05:24:59;1.42;;;1.00;;
15071;SDS011;7635;56.696;13.002;2023-06-10T05:27:26;1.00;;;1.00;;
15071;SDS011;7635;56.696;13.002;2023-06-10T05:29:52;0.82;;;0.82;;
15071;SDS011;7635;56.696;13.002;2023-06-10T05:32:19;1.02;;;0.93;;
15071;SDS011;7635;56.696;13.002;2023-06-10T05:34:46;1.20;;;1.10;;
15071;SDS011;7635;56.696;13.002;2023-06-10T05:37:14;1.23;;;1.00;;
15071;SDS011;7635;56.696;13.002;2023-06-10T05:39:41;1.20;;;1.10;;
15071;SDS011;7635;56.696;13.002;2023-06-10T05:42:08;0.90;;;0.90;;
15071;SDS011;7635;56.696;13.002;2023-06-10T05:44:35;1.10;;;1.00;;
15071;SDS011;7635;56.696;13.002;2023-06-10T05:47:02;4.13;;;1.45;;
15071;SDS011;7635;56.696;13.002;2023-06-10T05:49:29;1.00;;;0.93;;
15071;SDS011;7635;56.696;13.002;2023-06-10T05:51:55;0.70;;;0.70;;
15071;SDS011;7635;56.696;13.002;2023-06-10T05:54:25;0.60;;;0.60;;
15071;SDS011;7635;56.696;13.002;2023-06-10T05:56:52;0.90;;;0.90;;
15071;SDS011;7635;56.696;13.002;2023-06-10T05:59:19;1.95;;;1.17;;
15071;SDS011;7635;56.696;13.002;2023-06-10T06:01:47;1.33;;;0.90;;
15071;SDS011;7635;56.696;13.002;2023-06-10T06:04:14;1.27;;;0.98;;
15071;SDS011;7635;56.696;13.002;2023-06-10T06:06:41;0.82;;;0.82;;
15071;SDS011;7635;56.696;13.002;2023-06-10T06:09:08;2.28;;;1.00;;
15071;SDS011;7635;56.696;13.002;2023-06-10T06:11:36;1.60;;;0.80;;
15071;SDS011;7635;56.696;13.002;2023-06-10T06:14:03;0.63;;;0.63;;
15071;SDS011;7635;56.696;13.002;2023-06-10T06:16:30;1.23;;;0.82;;
15071;SDS011;7635;56.696;13.002;2023-06-10T06:18:56;1.17;;;1.10;;
15071;SDS011;7635;56.696;13.002;2023-06-10T06:21:23;0.98;;;0.98;;
15071;SDS011;7635;56.696;13.002;2023-06-10T06:23:50;0.63;;;0.63;;
15071;SDS011;7635;56.696;13.002;2023-06-10T06:26:16;2.83;;;0.93;;
15071;SDS011;7635;56.696;13.002;2023-06-10T06:28:44;1.23;;;0.80;;
15071;SDS011;7635;56.696;13.002;2023-06-10T06:31:11;1.17;;;0.90;;
15071;SDS011;7635;56.696;13.002;2023-06-10T06:33:38;1.30;;;1.00;;
15071;SDS011;7635;56.696;13.002;2023-06-10T06:36:05;0.77;;;0.77;;
15071;SDS011;7635;56.696;13.002;2023-06-10T06:38:31;0.80;;;0.80;;
15071;SDS011;7635;56.696;13.002;2023-06-10T06:40:58;1.67;;;1.00;;
15071;SDS011;7635;56.696;13.002;2023-06-10T06:43:27;0.90;;;0.90;;
15071;SDS011;7635;56.696;13.002;2023-06-10T06:45:56;0.88;;;0.88;;
15071;SDS011;7635;56.696;13.002;2023-06-10T06:48:23;0.85;;;0.85;;
15071;SDS011;7635;56.696;13.002;2023-06-10T06:50:49;0.95;;;0.90;;
15071;SDS011;7635;56.696;13.002;2023-06-10T06:53:16;1.13;;;1.02;;
15071;SDS011;7635;56.696;13.002;2023-06-10T06:55:43;1.70;;;1.10;;
15071;SDS011;7635;56.696;13.002;2023-06-10T06:58:09;1.83;;;1.17;;
15071;SDS011;7635;56.696;13.002;2023-06-10T07:00:36;1.17;;;1.13;;
15071;SDS011;7635;56.696;13.002;2023-06-10T07:03:04;0.88;;;0.88;;
15071;SDS011;7635;56.696;13.002;2023-06-10T07:05:31;0.95;;;0.95;;
15071;SDS011;7635;56.696;13.002;2023-06-10T07:07:57;0.68;;;0.68;;
15071;SDS011;7635;56.696;13.002;2023-06-10T07:10:24;0.77;;;0.77;;
15071;SDS011;7635;56.696;13.002;2023-06-10T07:12:52;1.30;;;1.20;;
15071;SDS011;7635;56.696;13.002;2023-06-10T07:15:19;0.80;;;0.80;;
15071;SDS011;7635;56.696;13.002;2023-06-10T07:17:46;0.90;;;0.80;;
15071;SDS011;7635;56.696;13.002;2023-06-10T07:20:14;1.10;;;1.00;;
15071;SDS011;7635;56.696;13.002;2023-06-10T07:22:40;1.17;;;1.10;;
15071;SDS011;7635;56.696;13.002;2023-06-10T07:25:07;2.05;;;1.00;;
15071;SDS011;7635;56.696;13.002;2023-06-10T07:27:34;1.17;;;1.08;;
15071;SDS011;7635;56.696;13.002;2023-06-10T07:30:02;1.00;;;1.00;;
15071;SDS011;7635;56.696;13.002;2023-06-10T07:32:29;1.25;;;1.15;;
15071;SDS011;7635;56.696;13.002;2023-06-10T07:34:56;1.20;;;1.10;;
15071;SDS011;7635;56.696;13.002;2023-06-10T07:37:24;1.05;;;1.00;;
15071;SDS011;7635;56.696;13.002;2023-06-10T07:39:51;1.95;;;0.95;;
15071;SDS011;7635;56.696;13.002;2023-06-10T07:42:18;2.65;;;1.00;;
15071;SDS011;7635;56.696;13.002;2023-06-10T07:44:44;1.40;;;1.30;;
15071;SDS011;7635;56.696;13.002;2023-06-10T07:47:11;1.10;;;1.00;;
15071;SDS011;7635;56.696;13.002;2023-06-10T07:49:38;1.25;;;1.00;;
15071;SDS011;7635;56.696;13.002;2023-06-10T07:52:06;1.67;;;1.00;;
15071;SDS011;7635;56.696;13.002;2023-06-10T07:54:35;4.43;;;1.30;;
15071;SDS011;7635;56.696;13.002;2023-06-10T07:57:01;1.23;;;1.13;;
15071;SDS011;7635;56.696;13.002;2023-06-10T07:59:28;1.08;;;1.08;;
15071;SDS011;7635;56.696;13.002;2023-06-10T08:01:55;4.97;;;1.58;;
15071;SDS011;7635;56.696;13.002;2023-06-10T08:04:22;1.48;;;1.15;;
15071;SDS011;7635;56.696;13.002;2023-06-10T08:06:48;0.55;;;0.55;;
15071;SDS011;7635;56.696;13.002;2023-06-10T08:09:15;1.20;;;1.10;;
15071;SDS011;7635;56.696;13.002;2023-06-10T08:11:44;1.25;;;1.02;;
15071;SDS011;7635;56.696;13.002;2023-06-10T08:14:12;1.45;;;1.30;;
15071;SDS011;7635;56.696;13.002;2023-06-10T08:16:39;0.80;;;0.80;;
15071;SDS011;7635;56.696;13.002;2023-06-10T08:19:06;1.45;;;1.30;;
15071;SDS011;7635;56.696;13.002;2023-06-10T08:21:34;1.35;;;1.20;;
15071;SDS011;7635;56.696;13.002;2023-06-10T08:24:01;1.30;;;1.20;;
15071;SDS011;7635;56.696;13.002;2023-06-10T08:26:28;2.88;;;1.30;;
15071;SDS011;7635;56.696;13.002;2023-06-10T08:28:56;1.35;;;1.25;;
15071;SDS011;7635;56.696;13.002;2023-06-10T08:31:23;1.42;;;1.33;;
15071;SDS011;7635;56.696;13.002;2023-06-10T08:33:50;0.90;;;0.90;;
15071;SDS011;7635;56.696;13.002;2023-06-10T08:36:17;1.48;;;1.38;;
15071;SDS011;7635;56.696;13.002;2023-06-10T08:38:43;1.35;;;1.25;;
15071;SDS011;7635;56.696;13.002;2023-06-10T08:41:11;1.30;;;1.20;;
15071;SDS011;7635;56.696;13.002;2023-06-10T08:43:42;1.00;;;1.00;;
15071;SDS011;7635;56.696;13.002;2023-06-10T08:46:13;1.23;;;1.15;;
15071;SDS011;7635;56.696;13.002;2023-06-10T08:48:42;1.25;;;1.25;;
15071;SDS011;7635;56.696;13.002;2023-06-10T08:51:10;1.30;;;1.27;;
15071;SDS011;7635;56.696;13.002;2023-06-10T08:53:38;1.77;;;1.25;;
15071;SDS011;7635;56.696;13.002;2023-06-10T08:56:14;3.55;;;1.40;;
15071;SDS011;7635;56.696;13.002;2023-06-10T08:58:42;1.40;;;1.30;;
15071;SDS011;7635;56.696;13.002;2023-06-10T09:01:09;1.42;;;1.33;;
15071;SDS011;7635;56.696;13.002;2023-06-10T09:03:38;3.88;;;1.40;;
15071;SDS011;7635;56.696;13.002;2023-06-10T09:06:05;1.30;;;1.20;;
15071;SDS011;7635;56.696;13.002;2023-06-10T09:08:32;2.28;;;1.60;;
15071;SDS011;7635;56.696;13.002;2023-06-10T09:10:59;3.30;;;1.52;;
15071;SDS011;7635;56.696;13.002;2023-06-10T09:13:26;4.85;;;1.33;;
15071;SDS011;7635;56.696;13.002;2023-06-10T09:15:53;3.17;;;1.75;;
15071;SDS011;7635;56.696;13.002;2023-06-10T09:18:21;1.38;;;1.17;;
15071;SDS011;7635;56.696;13.002;2023-06-10T09:20:49;1.25;;;1.15;;
15071;SDS011;7635;56.696;13.002;2023-06-10T09:23:16;3.58;;;1.30;;
15071;SDS011;7635;56.696;13.002;2023-06-10T09:25:43;2.15;;;1.40;;
15071;SDS011;7635;56.696;13.002;2023-06-10T09:28:12;1.70;;;1.40;;
15071;SDS011;7635;56.696;13.002;2023-06-10T09:30:40;1.08;;;1.08;;
15071;SDS011;7635;56.696;13.002;2023-06-10T09:33:12;1.15;;;1.00;;
15071;SDS011;7635;56.696;13.002;2023-06-10T09:35:44;1.48;;;1.38;;
15071;SDS011;7635;56.696;13.002;2023-06-10T09:38:13;1.30;;;1.20;;
15071;SDS011;7635;56.696;13.002;2023-06-10T09:40:48;1.58;;;1.35;;
15071;SDS011;7635;56.696;13.002;2023-06-10T09:43:16;1.17;;;1.17;;
15071;SDS011;7635;56.696;13.002;2023-06-10T09:45:43;1.00;;;1.00;;
15071;SDS011;7635;56.696;13.002;2023-06-10T09:48:10;1.42;;;1.33;;
15071;SDS011;7635;56.696;13.002;2023-06-10T09:50:41;1.48;;;1.38;;
15071;SDS011;7635;56.696;13.002;2023-06-10T09:53:08;2.85;;;1.67;;
15071;SDS011;7635;56.696;13.002;2023-06-10T09:55:38;1.27;;;1.08;;
15071;SDS011;7635;56.696;13.002;2023-06-10T09:58:05;1.50;;;1.40;;
15071;SDS011;7635;56.696;13.002;2023-06-10T10:00:32;0.98;;;0.98;;
15071;SDS011;7635;56.696;13.002;2023-06-10T10:02:59;1.50;;;1.40;;
15071;SDS011;7635;56.696;13.002;2023-06-10T10:05:26;2.80;;;1.38;;
15071;SDS011;7635;56.696;13.002;2023-06-10T10:07:54;3.05;;;1.60;;
15071;SDS011;7635;56.696;13.002;2023-06-10T10:10:21;1.52;;;1.13;;
15071;SDS011;7635;56.696;13.002;2023-06-10T10:12:50;1.40;;;1.30;;
15071;SDS011;7635;56.696;13.002;2023-06-10T10:15:20;1.58;;;1.48;;
15071;SDS011;7635;56.696;13.002;2023-06-10T10:17:51;3.05;;;1.40;;
15071;SDS011;7635;56.696;13.002;2023-06-10T10:20:26;1.65;;;1.45;;
15071;SDS011;7635;56.696;13.002;2023-06-10T10:22:56;1.30;;;1.20;;
15071;SDS011;7635;56.696;13.002;2023-06-10T10:25:24;1.58;;;1.45;;
15071;SDS011;7635;56.696;13.002;2023-06-10T10:27:56;2.97;;;1.60;;
15071;SDS011;7635;56.696;13.002;2023-06-10T10:30:25;1.45;;;1.00;;
15071;SDS011;7635;56.696;13.002;2023-06-10T10:32:55;2.25;;;1.75;;
15071;SDS011;7635;56.696;13.002;2023-06-10T10:35:24;1.67;;;1.42;;
15071;SDS011;7635;56.696;13.002;2023-06-10T10:37:52;1.50;;;1.40;;
15071;SDS011;7635;56.696;13.002;2023-06-10T10:40:20;2.20;;;1.60;;
15071;SDS011;7635;56.696;13.002;2023-06-10T10:42:48;1.40;;;1.30;;
15071;SDS011;7635;56.696;13.002;2023-06-10T10:45:16;1.42;;;1.33;;
15071;SDS011;7635;56.696;13.002;2023-06-10T10:47:44;1.55;;;1.42;;
15071;SDS011;7635;56.696;13.002;2023-06-10T10:50:15;3.03;;;1.98;;
15071;SDS011;7635;56.696;13.002;2023-06-10T10:52:50;2.58;;;1.45;;
15071;SDS011;7635;56.696;13.002;2023-06-10T10:55:19;1.67;;;1.48;;
15071;SDS011;7635;56.696;13.002;2023-06-10T10:57:55;1.48;;;1.38;;
15071;SDS011;7635;56.696;13.002;2023-06-10T11:00:28;2.67;;;1.60;;
15071;SDS011;7635;56.696;13.002;2023-06-10T11:03:00;1.40;;;1.30;;
15071;SDS011;7635;56.696;13.002;2023-06-10T11:05:35;3.28;;;1.73;;
15071;SDS011;7635;56.696;13.002;2023-06-10T11:08:04;1.50;;;1.23;;
15071;SDS011;7635;56.696;13.002;2023-06-10T11:10:31;1.40;;;1.30;;
15071;SDS011;7635;56.696;13.002;2023-06-10T11:12:59;2.15;;;1.52;;
15071;SDS011;7635;56.696;13.002;2023-06-10T11:15:27;1.40;;;1.30;;
15071;SDS011;7635;56.696;13.002;2023-06-10T11:20:59;1.40;;;1.30;;
15071;SDS011;7635;56.696;13.002;2023-06-10T11:23:40;1.60;;;1.45;;
15071;SDS011;7635;56.696;13.002;2023-06-10T11:26:11;2.00;;;1.70;;
15071;SDS011;7635;56.696;13.002;2023-06-10T11:28:39;1.38;;;1.27;;
15071;SDS011;7635;56.696;13.002;2023-06-10T11:31:08;1.42;;;1.33;;
15071;SDS011;7635;56.696;13.002;2023-06-10T11:33:44;1.42;;;1.33;;
15071;SDS011;7635;56.696;13.002;2023-06-10T11:36:12;1.23;;;1.20;;
15071;SDS011;7635;56.696;13.002;2023-06-10T11:38:40;1.95;;;1.50;;
15071;SDS011;7635;56.696;13.002;2023-06-10T11:41:07;1.77;;;1.38;;
15071;SDS011;7635;56.696;13.002;2023-06-10T11:43:34;1.50;;;1.40;;
15071;SDS011;7635;56.696;13.002;2023-06-10T11:46:01;2.13;;;1.50;;
15071;SDS011;7635;56.696;13.002;2023-06-10T11:48:29;2.30;;;1.40;;
15071;SDS011;7635;56.696;13.002;2023-06-10T11:50:56;1.95;;;1.50;;
15071;SDS011;7635;56.696;13.002;2023-06-10T11:53:23;8.68;;;1.50;;
15071;SDS011;7635;56.696;13.002;2023-06-10T11:55:50;3.72;;;1.70;;
15071;SDS011;7635;56.696;13.002;2023-06-10T11:58:17;1.65;;;1.38;;
15071;SDS011;7635;56.696;13.002;2023-06-10T12:00:46;2.90;;;1.65;;
15071;SDS011;7635;56.696;13.002;2023-06-10T12:03:13;1.30;;;1.20;;
15071;SDS011;7635;56.696;13.002;2023-06-10T12:05:42;1.98;;;1.55;;
15071;SDS011;7635;56.696;13.002;2023-06-10T12:08:21;1.85;;;1.40;;
15071;SDS011;7635;56.696;13.002;2023-06-10T12:10:48;1.83;;;1.70;;
15071;SDS011;7635;56.696;13.002;2023-06-10T12:13:15;3.22;;;1.65;;
15071;SDS011;7635;56.696;13.002;2023-06-10T12:15:43;3.40;;;1.60;;
15071;SDS011;7635;56.696;13.002;2023-06-10T12:18:15;1.35;;;1.25;;
15071;SDS011;7635;56.696;13.002;2023-06-10T12:20:44;1.95;;;1.60;;
15071;SDS011;7635;56.696;13.002;2023-06-10T12:23:11;1.10;;;1.10;;
15071;SDS011;7635;56.696;13.002;2023-06-10T12:25:39;2.72;;;1.60;;
15071;SDS011;7635;56.696;13.002;2023-06-10T12:28:09;1.73;;;1.48;;
15071;SDS011;7635;56.696;13.002;2023-06-10T12:30:36;1.88;;;1.40;;
15071;SDS011;7635;56.696;13.002;2023-06-10T12:33:03;1.65;;;1.15;;
15071;SDS011;7635;56.696;13.002;2023-06-10T12:35:30;1.70;;;1.55;;
15071;SDS011;7635;56.696;13.002;2023-06-10T12:37:58;1.70;;;1.60;;
15071;SDS011;7635;56.696;13.002;2023-06-10T12:40:27;1.80;;;1.40;;
15071;SDS011;7635;56.696;13.002;2023-06-10T12:42:54;1.65;;;1.55;;
15071;SDS011;7635;56.696;13.002;2023-06-10T12:45:28;3.20;;;1.80;;
15071;SDS011;7635;56.696;13.002;2023-06-10T12:48:04;3.28;;;1.35;;
15071;SDS011;7635;56.696;13.002;2023-06-10T12:50:32;1.30;;;1.15;;
15071;SDS011;7635;56.696;13.002;2023-06-10T12:53:00;1.60;;;1.17;;
15071;SDS011;7635;56.696;13.002;2023-06-10T12:55:27;1.55;;;1.45;;
15071;SDS011;7635;56.696;13.002;2023-06-10T12:57:54;1.60;;;1.50;;
15071;SDS011;7635;56.696;13.002;2023-06-10T13:00:21;1.77;;;1.65;;
15071;SDS011;7635;56.696;13.002;2023-06-10T13:02:50;2.17;;;1.73;;
15071;SDS011;7635;56.696;13.002;2023-06-10T13:05:17;2.00;;;1.70;;
15071;SDS011;7635;56.696;13.002;2023-06-10T13:07:45;1.88;;;1.25;;
15071;SDS011;7635;56.696;13.002;2023-06-10T13:10:13;1.60;;;1.50;;
15071;SDS011;7635;56.696;13.002;2023-06-10T13:12:41;2.10;;;1.50;;
15071;SDS011;7635;56.696;13.002;2023-06-10T13:15:08;2.38;;;1.80;;
15071;SDS011;7635;56.696;13.002;2023-06-10T13:17:35;2.20;;;1.83;;
15071;SDS011;7635;56.696;13.002;2023-06-10T13:50:24;4.22;;;2.25;;
15071;SDS011;7635;56.696;13.002;2023-06-10T13:53:13;1.73;;;1.52;;
15071;SDS011;7635;56.696;13.002;2023-06-10T13:55:56;3.78;;;2.15;;
15071;SDS011;7635;56.696;13.002;2023-06-10T13:59:03;1.80;;;1.52;;
15071;SDS011;7635;56.696;13.002;2023-06-10T14:01:43;1.60;;;1.50;;
15071;SDS011;7635;56.696;13.002;2023-06-10T14:04:20;2.58;;;1.83;;
15071;SDS011;7635;56.696;13.002;2023-06-10T14:07:03;2.10;;;1.80;;
15071;SDS011;7635;56.696;13.002;2023-06-10T14:09:41;1.42;;;1.33;;
15071;SDS011;7635;56.696;13.002;2023-06-10T14:12:20;4.80;;;1.65;;
15071;SDS011;7635;56.696;13.002;2023-06-10T14:15:07;2.03;;;1.83;;
15071;SDS011;7635;56.696;13.002;2023-06-10T14:18:24;3.10;;;2.10;;
15071;SDS011;7635;56.696;13.002;2023-06-10T14:21:15;2.70;;;1.63;;
15071;SDS011;7635;56.696;13.002;2023-06-10T14:24:18;3.25;;;1.50;;
15071;SDS011;7635;56.696;13.002;2023-06-10T14:33:37;1.70;;;1.60;;
15071;SDS011;7635;56.696;13.002;2023-06-10T14:40:10;3.33;;;1.70;;
15071;SDS011;7635;56.696;13.002;2023-06-10T14:42:55;1.63;;;1.40;;
15071;SDS011;7635;56.696;13.002;2023-06-10T14:49:21;2.17;;;1.65;;
15071;SDS011;7635;56.696;13.002;2023-06-10T14:52:02;1.67;;;1.20;;
15071;SDS011;7635;56.696;13.002;2023-06-10T14:54:44;2.22;;;1.40;;
15071;SDS011;7635;56.696;13.002;2023-06-10T14:57:33;2.65;;;1.90;;
15071;SDS011;7635;56.696;13.002;2023-06-10T15:00:23;3.08;;;1.50;;
15071;SDS011;7635;56.696;13.002;2023-06-10T15:02:50;1.85;;;1.50;;
15071;SDS011;7635;56.696;13.002;2023-06-10T15:05:18;2.22;;;1.38;;
15071;SDS011;7635;56.696;13.002;2023-06-10T15:07:45;3.90;;;1.73;;
15071;SDS011;7635;56.696;13.002;2023-06-10T15:10:12;2.22;;;1.80;;
15071;SDS011;7635;56.696;13.002;2023-06-10T15:12:41;2.30;;;2.00;;
15071;SDS011;7635;56.696;13.002;2023-06-10T15:15:08;2.00;;;1.70;;
15071;SDS011;7635;56.696;13.002;2023-06-10T15:17:35;2.50;;;1.80;;
15071;SDS011;7635;56.696;13.002;2023-06-10T15:20:02;1.83;;;1.60;;
15071;SDS011;7635;56.696;13.002;2023-06-10T15:22:30;4.65;;;1.83;;
15071;SDS011;7635;56.696;13.002;2023-06-10T15:24:56;3.55;;;1.80;;
15071;SDS011;7635;56.696;13.002;2023-06-10T15:27:23;6.45;;;2.13;;
15071;SDS011;7635;56.696;13.002;2023-06-10T15:29:51;2.97;;;1.50;;
15071;SDS011;7635;56.696;13.002;2023-06-10T15:32:18;1.83;;;1.73;;
15071;SDS011;7635;56.696;13.002;2023-06-10T15:34:44;2.05;;;1.48;;
15071;SDS011;7635;56.696;13.002;2023-06-10T15:37:12;2.60;;;2.40;;
15071;SDS011;7635;56.696;13.002;2023-06-10T15:39:39;2.58;;;1.42;;
15071;SDS011;7635;56.696;13.002;2023-06-10T15:42:06;2.45;;;1.58;;
15071;SDS011;7635;56.696;13.002;2023-06-10T15:44:33;1.70;;;1.60;;